Time;durP1;ratioP1;P1;durP2;ratioP2;P2;SDS_P1;SDS_P2;PMS_P1;PMS_P2;Temp;Humidity;BMP_temperature;BMP_pressure;BME280_temperature;BME280_humidity;BME280_pressure;Samples;Min_cycle;Max_cycle;Signal;HPM_P1;HPM_P2
2021/08/01 00:01:05;;;;;;;25.35;19.77;;;14.60;89.30;;;;;;5052342;28;20380;-68
2021/08/01 00:03:32;;;;;;;24.83;19.25;;;14.60;88.50;;;;;;5052420;28;20043;-68
2021/08/01 00:05:58;;;;;;;24.85;18.42;;;14.60;88.30;;;;;;5053702;28;20028;-68
2021/08/01 00:08:25;;;;;;;27.45;18.90;;;14.60;88.70;;;;;;5056619;28;20036;-68
2021/08/01 00:10:57;;;;;;;26.58;19.05;;;14.50;88.40;;;;;;5056520;28;20364;-70
2021/08/01 00:13:24;;;;;;;25.73;20.08;;;14.50;88.00;;;;;;5058525;28;20029;-69
2021/08/01 00:15:51;;;;;;;24.08;18.80;;;14.50;87.70;;;;;;5056666;28;20515;-67
2021/08/01 00:18:18;;;;;;;26.05;16.73;;;14.50;88.00;;;;;;5060241;28;20036;-67
2021/08/01 00:20:45;;;;;;;25.13;18.10;;;14.50;88.40;;;;;;5037234;28;20561;-67
2021/08/01 00:23:11;;;;;;;23.27;17.40;;;14.40;88.40;;;;;;5060770;28;20028;-68
2021/08/01 00:25:38;;;;;;;23.45;18.00;;;14.40;88.70;;;;;;5054695;28;20017;-67
2021/08/01 00:28:04;;;;;;;23.70;17.40;;;14.40;88.70;;;;;;5057312;28;20075;-67
2021/08/01 00:30:31;;;;;;;21.30;16.85;;;14.40;88.80;;;;;;5055728;28;20066;-67
2021/08/01 00:32:58;;;;;;;20.08;15.40;;;14.40;88.50;;;;;;5056047;28;20009;-68
2021/08/01 00:35:24;;;;;;;20.77;15.73;;;14.40;88.10;;;;;;5058213;28;20032;-68
2021/08/01 00:37:51;;;;;;;22.80;15.90;;;14.40;87.90;;;;;;5056930;28;20029;-67
2021/08/01 00:40:19;;;;;;;21.23;15.05;;;14.30;87.40;;;;;;5055603;28;20025;-67
2021/08/01 00:42:46;;;;;;;22.45;15.70;;;14.30;87.60;;;;;;5056932;28;20483;-68
2021/08/01 00:45:13;;;;;;;21.23;14.05;;;14.30;87.70;;;;;;5037995;28;20052;-68
2021/08/01 00:47:42;;;;;;;27.10;15.98;;;14.30;87.50;;;;;;5054765;28;20066;-68
2021/08/01 00:50:10;;;;;;;18.27;12.70;;;14.30;87.50;;;;;;5058378;28;20040;-68
2021/08/01 00:52:37;;;;;;;16.55;14.02;;;14.30;87.60;;;;;;5055131;28;20040;-68
2021/08/01 00:55:06;;;;;;;18.70;13.40;;;14.30;87.70;;;;;;5055148;28;20116;-68
2021/08/01 00:57:33;;;;;;;20.98;14.27;;;14.30;87.80;;;;;;5053122;28;20029;-67
2021/08/01 01:00:00;;;;;;;22.92;15.98;;;14.30;88.10;;;;;;5056101;28;20025;-67
2021/08/01 01:02:40;;;;;;;29.13;18.38;;;14.40;88.50;;;;;;5054383;28;20032;-67
2021/08/01 01:05:35;;;;;;;34.67;21.85;;;14.40;88.90;;;;;;5053740;28;20013;-68
2021/08/01 01:08:01;;;;;;;30.10;18.67;;;14.40;89.50;;;;;;5054903;28;20472;-67
2021/08/01 01:10:38;;;;;;;31.42;19.92;;;14.50;89.90;;;;;;5053922;28;20017;-67
2021/08/01 01:13:32;;;;;;;42.67;20.13;;;14.50;90.10;;;;;;5056072;28;20081;-67
2021/08/01 01:16:00;;;;;;;48.63;21.67;;;14.50;90.30;;;;;;5056975;28;20035;-67
2021/08/01 01:18:32;;;;;;;48.92;23.65;;;14.50;90.30;;;;;;5056225;28;20060;-69
2021/08/01 01:21:11;;;;;;;44.92;22.33;;;14.60;90.30;;;;;;5054164;28;20013;-68
2021/08/01 01:23:47;;;;;;;47.08;21.92;;;14.60;90.40;;;;;;5058690;28;20112;-69
2021/08/01 01:26:31;;;;;;;45.47;23.08;;;14.60;90.50;;;;;;5054424;28;20562;-69
2021/08/01 01:29:20;;;;;;;35.50;20.40;;;14.70;90.60;;;;;;5056375;28;20115;-68
2021/08/01 01:31:49;;;;;;;39.35;22.23;;;14.70;90.70;;;;;;5056941;28;20036;-69
2021/08/01 01:34:37;;;;;;;35.42;19.23;;;14.70;90.80;;;;;;5055482;28;20029;-69
2021/08/01 01:37:11;;;;;;;36.22;20.55;;;14.70;91.00;;;;;;5053460;28;20095;-69
2021/08/01 01:39:39;;;;;;;32.20;18.45;;;14.80;91.20;;;;;;5053836;28;20025;-69
2021/08/01 01:42:09;;;;;;;34.85;19.02;;;14.80;91.20;;;;;;5054686;28;20349;-70
2021/08/01 01:44:37;;;;;;;34.88;18.75;;;14.80;91.30;;;;;;5053766;28;20017;-69
2021/08/01 01:47:06;;;;;;;33.63;20.45;;;14.90;91.30;;;;;;5051678;28;20025;-69
2021/08/01 01:49:34;;;;;;;33.50;18.85;;;14.90;91.30;;;;;;5055875;28;20562;-69
2021/08/01 01:52:01;;;;;;;31.60;18.52;;;14.90;91.60;;;;;;5055637;28;20383;-68
2021/08/01 01:54:27;;;;;;;35.55;18.65;;;14.90;91.30;;;;;;5057340;28;20063;-69
2021/08/01 01:56:56;;;;;;;30.55;17.67;;;14.90;91.40;;;;;;5052773;28;20051;-69
2021/08/01 01:59:23;;;;;;;35.80;19.23;;;14.90;91.30;;;;;;5056825;28;20028;-68
2021/08/01 02:01:49;;;;;;;31.05;20.08;;;15.00;91.40;;;;;;5054587;28;20052;-69
2021/08/01 02:04:16;;;;;;;36.53;19.98;;;15.00;91.40;;;;;;5052064;28;20472;-69
2021/08/01 02:06:42;;;;;;;35.47;20.55;;;15.00;91.40;;;;;;5054790;28;20492;-69
2021/08/01 02:09:16;;;;;;;38.13;21.50;;;15.00;91.40;;;;;;5054089;28;20468;-69
2021/08/01 02:12:07;;;;;;;33.05;21.27;;;15.00;91.30;;;;;;5054904;28;20104;-69
2021/08/01 02:14:44;;;;;;;33.60;21.08;;;15.00;91.40;;;;;;5053234;28;20025;-69
2021/08/01 02:17:14;;;;;;;34.67;19.92;;;15.00;91.70;;;;;;5052291;28;20067;-69
2021/08/01 02:19:44;;;;;;;36.40;21.17;;;15.00;91.40;;;;;;5053665;28;20036;-68
2021/08/01 02:22:13;;;;;;;33.90;19.25;;;15.00;91.40;;;;;;5052768;28;20104;-69
2021/08/01 02:24:41;;;;;;;32.50;18.63;;;15.00;91.40;;;;;;5054366;28;20017;-69
2021/08/01 02:27:09;;;;;;;31.45;17.00;;;15.00;91.50;;;;;;5052004;28;20095;-69
2021/08/01 02:29:37;;;;;;;32.90;20.92;;;15.10;91.50;;;;;;5053352;28;20024;-69
2021/08/01 02:32:04;;;;;;;34.40;18.48;;;15.00;91.50;;;;;;5054639;28;20017;-69
2021/08/01 02:34:31;;;;;;;37.83;19.45;;;15.00;91.50;;;;;;5051898;28;20040;-68
2021/08/01 02:36:59;;;;;;;36.00;19.70;;;15.00;91.80;;;;;;5054190;28;20057;-68
2021/08/01 02:39:26;;;;;;;40.50;20.60;;;15.00;91.50;;;;;;5051552;28;20035;-68
2021/08/01 02:41:54;;;;;;;43.10;21.50;;;15.00;91.50;;;;;;5054574;28;21452;-68
2021/08/01 02:44:28;;;;;;;37.60;19.17;;;15.00;91.50;;;;;;5053231;28;20051;-68
2021/08/01 02:46:56;;;;;;;42.35;19.50;;;15.00;91.50;;;;;;5055953;28;20031;-68
2021/08/01 02:49:40;;;;;;;39.10;20.85;;;15.00;91.60;;;;;;5056660;28;20387;-69
2021/08/01 02:52:10;;;;;;;39.40;19.33;;;15.00;91.60;;;;;;5053285;28;20054;-67
2021/08/01 02:54:40;;;;;;;32.95;16.73;;;15.00;91.60;;;;;;5056158;28;20025;-68
2021/08/01 02:57:12;;;;;;;35.47;17.25;;;15.00;91.60;;;;;;5051153;28;20016;-68
2021/08/01 02:59:41;;;;;;;28.20;13.60;;;15.00;91.60;;;;;;5055151;28;20013;-68
2021/08/01 03:02:10;;;;;;;29.92;15.27;;;14.90;91.60;;;;;;5052500;28;20024;-68
2021/08/01 03:04:39;;;;;;;25.77;14.55;;;14.90;91.60;;;;;;5051354;28;20036;-68
2021/08/01 03:07:07;;;;;;;31.90;14.75;;;14.90;91.70;;;;;;5054050;28;20027;-68
2021/08/01 03:09:34;;;;;;;35.33;17.02;;;14.90;91.70;;;;;;5051595;28;20079;-68
2021/08/01 03:12:27;;;;;;;38.42;17.38;;;14.90;91.60;;;;;;5055333;28;20745;-68
2021/08/01 03:14:53;;;;;;;32.92;15.48;;;14.90;91.70;;;;;;5051452;28;20139;-67
2021/08/01 03:17:20;;;;;;;39.65;18.83;;;14.90;91.80;;;;;;5053572;28;20048;-68
2021/08/01 03:19:46;;;;;;;31.40;16.50;;;14.90;91.90;;;;;;5053109;28;20029;-70
2021/08/01 03:22:13;;;;;;;28.58;14.82;;;14.90;91.90;;;;;;5052021;28;20028;-69
2021/08/01 03:24:39;;;;;;;34.45;16.73;;;14.90;91.90;;;;;;5052961;28;20028;-69
2021/08/01 03:27:06;;;;;;;37.63;16.13;;;14.90;91.90;;;;;;5051887;28;20029;-69
2021/08/01 03:29:32;;;;;;;30.88;15.68;;;14.90;92.00;;;;;;5051561;28;20128;-68
2021/08/01 03:31:59;;;;;;;36.53;16.38;;;14.90;91.90;;;;;;5054587;28;20031;-68
2021/08/01 03:34:25;;;;;;;27.05;14.88;;;14.90;91.90;;;;;;5052128;28;20025;-69
2021/08/01 03:36:52;;;;;;;25.35;14.88;;;14.90;91.90;;;;;;5054066;28;20037;-69
2021/08/01 03:39:18;;;;;;;30.90;15.15;;;14.90;91.80;;;;;;5049305;28;20017;-67
2021/08/01 03:41:45;;;;;;;24.15;14.80;;;14.90;91.80;;;;;;5053985;28;20024;-69
2021/08/01 03:44:11;;;;;;;30.50;14.45;;;14.90;91.70;;;;;;5054385;28;20020;-69
2021/08/01 03:46:38;;;;;;;25.77;13.40;;;14.90;91.70;;;;;;5052599;28;20078;-70
2021/08/01 03:49:05;;;;;;;29.20;13.70;;;14.90;91.70;;;;;;5053431;28;20403;-70
2021/08/01 03:51:31;;;;;;;24.02;13.52;;;14.90;91.70;;;;;;5051084;28;20475;-70
2021/08/01 03:53:58;;;;;;;24.23;14.15;;;14.90;91.80;;;;;;5057172;28;20028;-70
2021/08/01 03:56:24;;;;;;;32.33;14.43;;;14.90;91.80;;;;;;5052037;28;20042;-69
2021/08/01 03:58:51;;;;;;;21.73;14.15;;;14.90;91.70;;;;;;5056638;28;20086;-70
2021/08/01 04:01:17;;;;;;;25.83;13.35;;;14.90;91.70;;;;;;5050402;28;20032;-69
2021/08/01 04:03:44;;;;;;;24.75;12.60;;;14.90;91.60;;;;;;5054205;28;20107;-69
2021/08/01 04:06:10;;;;;;;21.38;11.93;;;14.90;91.60;;;;;;5038195;28;20032;-70
2021/08/01 04:08:37;;;;;;;22.52;12.68;;;14.90;91.60;;;;;;5056829;28;20040;-70
2021/08/01 04:11:06;;;;;;;20.25;12.25;;;14.80;91.50;;;;;;5052788;28;20017;-70
2021/08/01 04:13:34;;;;;;;22.55;12.77;;;14.80;91.50;;;;;;5052528;28;20392;-69
2021/08/01 04:16:00;;;;;;;23.13;15.32;;;14.90;91.50;;;;;;5053264;28;20017;-69
2021/08/01 04:18:30;;;;;;;18.15;12.55;;;14.80;91.50;;;;;;5052249;28;20061;-69
2021/08/01 04:20:57;;;;;;;25.95;12.77;;;14.80;91.50;;;;;;5053691;28;20037;-70
2021/08/01 04:23:23;;;;;;;18.92;11.48;;;14.90;91.50;;;;;;5050576;28;20039;-69
2021/08/01 04:25:50;;;;;;;18.13;11.82;;;14.80;91.50;;;;;;5053300;28;20017;-69
2021/08/01 04:28:16;;;;;;;21.00;10.23;;;14.80;91.40;;;;;;5052254;28;20028;-69
2021/08/01 04:30:43;;;;;;;22.55;11.52;;;14.80;91.30;;;;;;5052205;28;20024;-69
2021/08/01 04:33:09;;;;;;;15.18;11.38;;;14.80;91.20;;;;;;5053945;28;20483;-69
2021/08/01 04:35:36;;;;;;;17.75;10.82;;;14.80;91.10;;;;;;5053281;28;20108;-69
2021/08/01 04:38:02;;;;;;;17.98;9.95;;;14.70;90.90;;;;;;5050027;28;20123;-69
2021/08/01 04:40:29;;;;;;;18.60;11.82;;;14.70;90.90;;;;;;5052924;28;20467;-69
2021/08/01 04:42:56;;;;;;;14.77;10.52;;;14.70;91.00;;;;;;5052708;28;20021;-69
2021/08/01 04:45:23;;;;;;;19.17;12.02;;;14.60;91.00;;;;;;5051648;28;20021;-69
2021/08/01 04:47:49;;;;;;;18.27;10.35;;;14.70;91.00;;;;;;5052815;28;20013;-69
2021/08/01 04:50:16;;;;;;;20.08;11.98;;;14.60;91.00;;;;;;5056336;28;20033;-69
2021/08/01 04:52:42;;;;;;;19.88;11.15;;;14.60;91.00;;;;;;5059625;28;20032;-69
2021/08/01 04:55:09;;;;;;;15.32;9.90;;;14.60;90.90;;;;;;5055259;28;20017;-68
2021/08/01 04:57:36;;;;;;;15.18;10.50;;;14.50;90.80;;;;;;5056356;28;20048;-69
2021/08/01 05:00:05;;;;;;;18.98;12.43;;;14.50;90.70;;;;;;5056222;28;20025;-69
2021/08/01 05:02:31;;;;;;;19.70;11.73;;;14.50;90.60;;;;;;5055277;28;20020;-69
2021/08/01 05:05:09;;;;;;;18.58;10.70;;;14.40;90.60;;;;;;5056946;28;20078;-69
2021/08/01 05:07:35;;;;;;;14.32;9.57;;;14.40;90.50;;;;;;5056409;28;20013;-69
2021/08/01 05:10:02;;;;;;;17.55;10.13;;;14.40;90.40;;;;;;5054000;28;20040;-69
2021/08/01 05:12:28;;;;;;;16.15;10.55;;;14.40;90.30;;;;;;5056861;28;20013;-69
2021/08/01 05:14:55;;;;;;;20.23;10.85;;;14.30;90.30;;;;;;5056633;28;20078;-69
2021/08/01 05:17:21;;;;;;;19.50;11.23;;;14.30;90.20;;;;;;5056466;28;20618;-69
2021/08/01 05:19:48;;;;;;;18.05;11.15;;;14.30;90.20;;;;;;5055862;28;20436;-69
2021/08/01 05:22:15;;;;;;;15.07;10.35;;;14.30;90.20;;;;;;5034722;28;20047;-69
2021/08/01 05:24:42;;;;;;;18.05;12.55;;;14.20;90.10;;;;;;5044104;28;20025;-69
2021/08/01 05:27:09;;;;;;;19.42;10.88;;;14.20;90.10;;;;;;5054177;28;20088;-69
2021/08/01 05:29:36;;;;;;;21.65;12.35;;;14.10;90.20;;;;;;5056123;28;20060;-69
2021/08/01 05:32:04;;;;;;;16.88;10.48;;;14.20;90.40;;;;;;5054939;28;20071;-69
2021/08/01 05:34:32;;;;;;;14.90;10.63;;;14.20;90.40;;;;;;5055325;28;20495;-69
2021/08/01 05:36:59;;;;;;;20.50;10.57;;;14.20;90.50;;;;;;5056260;28;20078;-69
2021/08/01 05:39:26;;;;;;;16.00;10.98;;;14.20;90.60;;;;;;5053969;28;20036;-69
2021/08/01 05:41:52;;;;;;;19.83;12.77;;;14.20;90.70;;;;;;5056896;28;20502;-69
2021/08/01 05:44:19;;;;;;;21.17;13.98;;;14.20;90.80;;;;;;5054414;28;20029;-69
2021/08/01 05:46:45;;;;;;;19.20;12.45;;;14.20;90.90;;;;;;5052448;28;20508;-69
2021/08/01 05:49:12;;;;;;;18.70;11.52;;;14.30;90.90;;;;;;5054813;28;21106;-69
2021/08/01 05:51:39;;;;;;;16.48;11.43;;;14.30;91.00;;;;;;5054244;28;20621;-68
2021/08/01 05:54:06;;;;;;;16.20;12.27;;;14.30;91.00;;;;;;5054892;28;20024;-69
2021/08/01 05:56:32;;;;;;;12.40;9.75;;;14.30;91.00;;;;;;5054765;28;20043;-69
2021/08/01 05:58:59;;;;;;;16.77;9.65;;;14.40;91.00;;;;;;5056012;28;20112;-68
2021/08/01 06:01:25;;;;;;;9.57;7.82;;;14.30;91.00;;;;;;5055634;28;20017;-70
2021/08/01 06:03:54;;;;;;;17.30;9.43;;;14.40;91.10;;;;;;5054790;28;20024;-70
2021/08/01 06:06:22;;;;;;;14.18;9.60;;;14.40;91.20;;;;;;5054224;28;20013;-69
2021/08/01 06:08:51;;;;;;;11.55;8.27;;;14.40;91.20;;;;;;5052111;28;20517;-70
2021/08/01 06:11:20;;;;;;;17.38;11.30;;;14.40;91.20;;;;;;5033847;28;20021;-69
2021/08/01 06:13:47;;;;;;;16.30;11.13;;;14.40;91.30;;;;;;5055585;28;20033;-70
2021/08/01 06:16:15;;;;;;;17.42;10.73;;;14.40;91.20;;;;;;5053925;28;20059;-70
2021/08/01 06:18:43;;;;;;;16.60;11.25;;;14.50;91.30;;;;;;5053737;28;20036;-70
2021/08/01 06:21:16;;;;;;;15.25;9.65;;;14.50;91.40;;;;;;5053515;28;20054;-70
2021/08/01 06:23:51;;;;;;;14.65;9.00;;;14.50;91.50;;;;;;5056956;28;20078;-70
2021/08/01 06:26:20;;;;;;;13.93;9.20;;;14.60;91.60;;;;;;5054388;28;20036;-69
2021/08/01 06:28:48;;;;;;;15.73;9.35;;;14.60;91.60;;;;;;5053852;28;20561;-69
2021/08/01 06:31:14;;;;;;;14.88;10.25;;;14.60;91.60;;;;;;5053057;28;20108;-71
2021/08/01 06:34:23;;;;;;;14.60;9.00;;;14.60;91.60;;;;;;5053018;28;20024;-71
2021/08/01 06:36:51;;;;;;;13.80;9.30;;;14.70;91.70;;;;;;5050529;28;20031;-71
2021/08/01 06:39:17;;;;;;;15.82;10.13;;;14.70;91.80;;;;;;5050733;28;20439;-71
2021/08/01 06:41:44;;;;;;;17.17;9.45;;;14.70;91.80;;;;;;5048309;28;20029;-71
2021/08/01 06:44:10;;;;;;;9.88;6.75;;;14.80;91.80;;;;;;5051246;28;20051;-70
2021/08/01 06:46:37;;;;;;;10.10;5.55;;;14.80;91.90;;;;;;5049684;28;20484;-69
2021/08/01 06:49:03;;;;;;;9.52;5.07;;;14.80;92.00;;;;;;5051642;28;20072;-70
2021/08/01 06:51:32;;;;;;;9.93;5.32;;;14.90;92.00;;;;;;5050891;28;20048;-72
2021/08/01 06:53:58;;;;;;;6.18;3.72;;;14.90;92.20;;;;;;5052395;28;20028;-71
2021/08/01 06:56:25;;;;;;;6.97;4.32;;;14.90;91.90;;;;;;5047338;28;20033;-70
2021/08/01 06:58:51;;;;;;;6.20;3.00;;;14.90;91.70;;;;;;5048746;28;20104;-70
2021/08/01 07:01:18;;;;;;;7.10;3.83;;;15.00;91.60;;;;;;5049582;28;20025;-69
2021/08/01 07:03:44;;;;;;;8.52;4.10;;;15.00;91.40;;;;;;5049071;28;20108;-71
2021/08/01 07:06:12;;;;;;;6.57;3.78;;;15.00;91.40;;;;;;5049349;28;20029;-70
2021/08/01 07:08:38;;;;;;;6.90;3.35;;;15.00;91.30;;;;;;5047387;28;20037;-71
2021/08/01 07:11:05;;;;;;;9.60;3.28;;;15.00;91.30;;;;;;5049183;28;20074;-70
2021/08/01 07:13:31;;;;;;;5.85;4.03;;;15.10;91.20;;;;;;5046683;28;20024;-70
2021/08/01 07:16:04;;;;;;;8.45;4.15;;;15.10;91.20;;;;;;5053189;28;20063;-70
2021/08/01 07:18:32;;;;;;;5.45;2.92;;;15.10;91.20;;;;;;5051655;28;20017;-70
2021/08/01 07:20:59;;;;;;;7.75;3.53;;;15.10;91.10;;;;;;5052455;28;20480;-70
2021/08/01 07:23:27;;;;;;;7.60;3.50;;;15.10;91.10;;;;;;5050202;28;20024;-70
2021/08/01 07:25:53;;;;;;;6.25;3.17;;;15.20;91.10;;;;;;5051098;28;20541;-68
2021/08/01 07:28:20;;;;;;;7.50;3.33;;;15.20;91.10;;;;;;5049455;28;20021;-70
2021/08/01 07:30:47;;;;;;;6.18;2.45;;;15.30;91.40;;;;;;5051208;28;20368;-69
2021/08/01 07:33:13;;;;;;;3.78;2.72;;;15.20;91.10;;;;;;5050246;28;20017;-69
2021/08/01 07:35:42;;;;;;;8.27;3.45;;;15.30;91.10;;;;;;5051644;28;20425;-69
2021/08/01 07:38:09;;;;;;;6.40;3.10;;;15.30;91.10;;;;;;5047497;28;20017;-70
2021/08/01 07:40:35;;;;;;;5.28;2.78;;;15.40;91.10;;;;;;5050668;28;20089;-70
2021/08/01 07:43:02;;;;;;;8.57;2.90;;;15.40;91.00;;;;;;5047620;28;20040;-69
2021/08/01 07:45:34;;;;;;;9.68;3.35;;;15.50;91.00;;;;;;5050744;28;20044;-71
2021/08/01 07:48:01;;;;;;;6.95;2.90;;;15.50;90.90;;;;;;5047795;28;20036;-71
2021/08/01 07:50:29;;;;;;;7.43;2.90;;;15.50;90.80;;;;;;5050543;28;20063;-70
2021/08/01 07:52:56;;;;;;;9.13;3.17;;;15.50;90.70;;;;;;5050411;28;20873;-70
2021/08/01 07:55:23;;;;;;;10.60;3.53;;;15.60;90.60;;;;;;5049556;28;20509;-70
2021/08/01 07:57:50;;;;;;;5.00;2.60;;;15.60;90.40;;;;;;5051771;28;21089;-71
2021/08/01 08:00:16;;;;;;;6.90;2.47;;;15.60;90.40;;;;;;5046829;28;20381;-70
2021/08/01 08:02:44;;;;;;;4.47;2.95;;;15.70;90.40;;;;;;5053649;28;20069;-71
2021/08/01 08:05:11;;;;;;;9.60;4.70;;;15.70;90.20;;;;;;5054751;28;20017;-71
2021/08/01 08:07:38;;;;;;;7.78;3.25;;;15.80;90.20;;;;;;5052625;28;20016;-70
2021/08/01 08:10:06;;;;;;;8.48;2.20;;;15.90;90.10;;;;;;5056752;28;20033;-70
2021/08/01 08:12:33;;;;;;;7.35;2.55;;;15.90;89.70;;;;;;5051945;28;20025;-71
2021/08/01 08:14:59;;;;;;;5.07;3.15;;;15.90;89.10;;;;;;5054818;28;20056;-69
2021/08/01 08:17:26;;;;;;;6.07;2.60;;;16.00;88.90;;;;;;5053829;28;20024;-71
2021/08/01 08:19:52;;;;;;;9.52;3.00;;;16.00;88.60;;;;;;5054457;28;20499;-69
2021/08/01 08:22:19;;;;;;;7.07;3.00;;;16.00;88.10;;;;;;5053431;28;20032;-75
2021/08/01 08:24:45;;;;;;;5.50;3.25;;;16.10;87.70;;;;;;5054935;28;20033;-76
2021/08/01 08:27:12;;;;;;;6.07;3.25;;;16.10;87.80;;;;;;5041381;28;20475;-73
2021/08/01 08:29:39;;;;;;;16.90;10.55;;;16.20;87.80;;;;;;5062608;28;20035;-76
2021/08/01 08:32:05;;;;;;;271.88;178.80;;;16.20;87.40;;;;;;5059247;28;20025;-77
2021/08/01 08:34:32;;;;;;;76.53;48.05;;;16.30;87.30;;;;;;5055217;28;20021;-69
2021/08/01 08:37:01;;;;;;;20.80;11.40;;;16.30;87.20;;;;;;5053599;28;20492;-72
2021/08/01 08:39:29;;;;;;;14.30;7.90;;;16.40;86.90;;;;;;5039735;28;20029;-70
2021/08/01 08:42:00;;;;;;;5.97;4.13;;;16.40;86.50;;;;;;5052480;28;20017;-74
2021/08/01 08:44:27;;;;;;;8.43;3.40;;;16.40;86.10;;;;;;5053625;28;20027;-77
2021/08/01 08:46:55;;;;;;;11.52;3.47;;;16.40;85.90;;;;;;5056181;28;20025;-79
2021/08/01 08:49:23;;;;;;;215.52;110.35;;;16.50;85.70;;;;;;5056534;28;20033;-75
2021/08/01 08:51:54;;;;;;;18.35;9.38;;;16.60;85.60;;;;;;5050136;28;20558;-72
2021/08/01 08:54:31;;;;;;;9.10;4.93;;;16.60;85.30;;;;;;5057194;28;20029;-75
2021/08/01 08:57:02;;;;;;;8.48;4.05;;;16.70;85.00;;;;;;5053458;28;20041;-71
2021/08/01 08:59:29;;;;;;;9.32;3.78;;;16.70;84.50;;;;;;5056609;28;20029;-71
2021/08/01 09:01:56;;;;;;;10.55;4.50;;;16.80;84.20;;;;;;5051791;28;21202;-70
2021/08/01 09:04:23;;;;;;;6.53;3.28;;;16.90;83.90;;;;;;5053447;28;20025;-69
2021/08/01 09:06:50;;;;;;;8.35;3.78;;;17.00;83.50;;;;;;5055005;28;20025;-69
2021/08/01 09:09:16;;;;;;;9.20;3.47;;;17.00;83.10;;;;;;5054306;28;20041;-69
2021/08/01 09:11:44;;;;;;;39.97;30.52;;;17.00;82.80;;;;;;5055064;28;20053;-71
2021/08/01 09:14:31;;;;;;;11.98;6.15;;;17.10;82.50;;;;;;5056842;28;20112;-70
2021/08/01 09:16:57;;;;;;;7.75;2.05;;;17.10;79.90;;;;;;5054647;28;20441;-70
2021/08/01 09:19:27;;;;;;;10.35;3.67;;;17.10;77.30;;;;;;5055912;28;20021;-68
2021/08/01 09:22:09;;;;;;;3.35;1.48;;;17.10;76.80;;;;;;5057373;28;20029;-70
2021/08/01 09:24:35;;;;;;;5.50;1.85;;;17.10;76.70;;;;;;5056964;28;20021;-70
2021/08/01 09:27:03;;;;;;;8.95;2.03;;;17.10;77.10;;;;;;5053800;28;20083;-69
2021/08/01 09:29:33;;;;;;;4.70;1.52;;;17.10;76.20;;;;;;5058953;28;20064;-68
2021/08/01 09:32:02;;;;;;;4.22;1.90;;;17.10;76.50;;;;;;5050181;28;20069;-69
2021/08/01 09:34:29;;;;;;;6.28;1.67;;;17.10;76.30;;;;;;5055512;28;20051;-68
2021/08/01 09:36:57;;;;;;;4.82;1.88;;;17.20;76.30;;;;;;5052975;28;21460;-69
2021/08/01 09:39:23;;;;;;;2.35;1.48;;;17.30;76.10;;;;;;5054268;28;20029;-70
2021/08/01 09:42:02;;;;;;;5.60;1.63;;;17.30;74.80;;;;;;5055695;28;20475;-68
2021/08/01 09:44:30;;;;;;;3.72;2.00;;;17.30;74.40;;;;;;5054972;28;20050;-68
2021/08/01 09:46:57;;;;;;;3.80;1.90;;;17.30;74.30;;;;;;5053105;28;20578;-67
2021/08/01 09:49:31;;;;;;;3.72;1.27;;;17.40;73.60;;;;;;5055192;28;20064;-68
2021/08/01 09:52:04;;;;;;;9.43;3.27;;;17.40;74.00;;;;;;5034264;28;20052;-67
2021/08/01 09:54:48;;;;;;;7.10;3.03;;;17.40;74.10;;;;;;5036433;28;20029;-68
2021/08/01 09:57:19;;;;;;;4.65;1.30;;;17.50;73.90;;;;;;5033455;28;20059;-68
2021/08/01 09:59:48;;;;;;;4.53;1.70;;;17.50;73.60;;;;;;5035220;28;20024;-71
2021/08/01 10:02:15;;;;;;;4.32;1.25;;;17.50;74.00;;;;;;5036495;28;20032;-69
2021/08/01 10:04:42;;;;;;;3.78;2.05;;;17.50;73.60;;;;;;5031389;28;20037;-69
2021/08/01 10:07:13;;;;;;;11.52;2.42;;;17.60;73.60;;;;;;5032402;28;20072;-72
2021/08/01 10:09:41;;;;;;;3.72;1.58;;;17.60;73.30;;;;;;5033063;28;20043;-68
2021/08/01 10:12:09;;;;;;;3.67;1.50;;;17.70;73.10;;;;;;5035358;28;20105;-68
2021/08/01 10:14:37;;;;;;;4.75;1.70;;;17.70;72.60;;;;;;5033134;28;20025;-71
2021/08/01 10:17:05;;;;;;;1.48;1.15;;;17.70;72.40;;;;;;5037060;28;20449;-68
2021/08/01 10:19:33;;;;;;;6.55;1.75;;;17.70;72.10;;;;;;5035435;28;20543;-69
2021/08/01 10:22:03;;;;;;;4.25;1.10;;;17.70;72.60;;;;;;5037708;28;20017;-69
2021/08/01 10:24:43;;;;;;;7.15;1.42;;;17.70;72.30;;;;;;5034282;28;20018;-69
2021/08/01 10:27:11;;;;;;;8.15;1.65;;;17.70;71.70;;;;;;5036772;28;20053;-68
2021/08/01 10:29:51;;;;;;;4.50;1.45;;;17.70;72.30;;;;;;5040708;28;20037;-70
2021/08/01 10:32:22;;;;;;;6.40;2.63;;;17.60;72.50;;;;;;5033476;28;20508;-73
2021/08/01 10:35:09;;;;;;;3.95;1.60;;;17.60;72.20;;;;;;5034403;28;20464;-69
2021/08/01 10:38:02;;;;;;;8.30;1.90;;;17.70;72.60;;;;;;5034506;28;20017;-69
2021/08/01 10:40:33;;;;;;;4.68;2.00;;;17.70;72.80;;;;;;5032776;28;20385;-72
2021/08/01 10:43:12;;;;;;;54.92;41.85;;;17.70;72.10;;;;;;5036490;28;20072;-70
2021/08/01 10:45:43;;;;;;;30.77;22.95;;;17.60;72.40;;;;;;5032878;28;20032;-71
2021/08/01 10:48:11;;;;;;;8.35;4.65;;;17.60;72.60;;;;;;5034716;28;20032;-68
2021/08/01 10:50:39;;;;;;;13.65;3.25;;;17.70;72.40;;;;;;5037359;28;20052;-71
2021/08/01 10:53:24;;;;;;;5.93;2.40;;;17.70;72.40;;;;;;5053265;28;20017;-68
2021/08/01 10:55:53;;;;;;;7.50;2.78;;;17.80;72.80;;;;;;5057367;28;20473;-70
2021/08/01 10:58:20;;;;;;;7.40;2.10;;;17.80;72.50;;;;;;5050631;28;20028;-73
2021/08/01 11:00:55;;;;;;;5.90;2.00;;;17.80;71.20;;;;;;5053851;28;20025;-71
2021/08/01 11:03:23;;;;;;;3.53;1.60;;;17.80;71.00;;;;;;5058015;28;20491;-70
2021/08/01 11:05:50;;;;;;;5.40;1.33;;;17.90;70.90;;;;;;5053564;28;20021;-71
2021/08/01 11:08:17;;;;;;;4.65;1.70;;;18.00;71.00;;;;;;5056735;28;20025;-68
2021/08/01 11:10:44;;;;;;;5.65;1.48;;;18.00;70.80;;;;;;5050843;28;20744;-70
2021/08/01 11:13:29;;;;;;;5.72;1.77;;;18.10;69.80;;;;;;5055906;28;20473;-70
2021/08/01 11:15:55;;;;;;;7.10;2.25;;;18.10;70.00;;;;;;5051708;28;20021;-70
2021/08/01 11:18:42;;;;;;;4.05;1.17;;;18.10;69.70;;;;;;5054481;28;20024;-70
2021/08/01 11:21:10;;;;;;;2.47;1.10;;;18.10;69.20;;;;;;5053262;28;20075;-71
2021/08/01 11:23:49;;;;;;;3.28;1.52;;;18.20;69.10;;;;;;5054658;28;20483;-70
2021/08/01 11:26:18;;;;;;;4.53;1.77;;;18.20;69.20;;;;;;5053681;28;20472;-72
2021/08/01 11:28:48;;;;;;;5.32;1.80;;;18.10;69.40;;;;;;5054236;28;20041;-72
2021/08/01 11:31:22;;;;;;;5.60;1.67;;;18.10;69.60;;;;;;5054661;28;20387;-73
2021/08/01 11:33:50;;;;;;;3.38;1.75;;;18.10;69.50;;;;;;5053564;28;20036;-71
2021/08/01 11:36:21;;;;;;;4.72;1.73;;;18.10;69.80;;;;;;5055824;28;20020;-71
2021/08/01 11:38:54;;;;;;;7.13;1.45;;;18.00;71.20;;;;;;5051537;28;20120;-72
2021/08/01 11:41:40;;;;;;;6.50;1.80;;;18.00;71.70;;;;;;5050799;28;20618;-73
2021/08/01 11:44:14;;;;;;;9.38;2.88;;;18.00;72.10;;;;;;5057101;28;20031;-72
2021/08/01 11:46:59;;;;;;;11.23;1.92;;;18.00;72.70;;;;;;5053277;28;20037;-72
2021/08/01 11:49:45;;;;;;;12.23;7.77;;;18.00;72.90;;;;;;5052889;28;20033;-72
2021/08/01 11:52:13;;;;;;;11.80;4.13;;;18.00;73.60;;;;;;5054668;28;20071;-72
2021/08/01 11:54:42;;;;;;;5.82;2.63;;;18.00;73.90;;;;;;5055024;28;20450;-73
2021/08/01 11:57:14;;;;;;;4.30;2.08;;;18.00;73.80;;;;;;5051340;28;20029;-72
2021/08/01 11:59:42;;;;;;;12.85;5.68;;;17.90;73.90;;;;;;5053238;28;20032;-70
2021/08/01 12:02:14;;;;;;;6.68;3.28;;;18.00;74.30;;;;;;5060271;28;20029;-70
2021/08/01 12:04:56;;;;;;;6.85;2.50;;;18.00;74.40;;;;;;5059602;28;20139;-71
2021/08/01 12:07:37;;;;;;;5.63;1.55;;;18.00;74.30;;;;;;5060948;28;20024;-71
2021/08/01 12:10:14;;;;;;;8.20;1.85;;;17.90;73.90;;;;;;5063700;28;20037;-70
2021/08/01 12:12:41;;;;;;;5.80;1.40;;;18.00;73.90;;;;;;5062532;28;20033;-71
2021/08/01 12:15:08;;;;;;;4.28;1.55;;;18.10;73.20;;;;;;5060300;28;20184;-71
2021/08/01 12:17:38;;;;;;;3.60;1.58;;;18.10;73.00;;;;;;5059118;28;20020;-72
2021/08/01 12:20:05;;;;;;;1.85;0.98;;;18.30;70.70;;;;;;5058205;28;20017;-71
2021/08/01 12:22:32;;;;;;;3.90;1.15;;;18.50;69.90;;;;;;5061656;28;20025;-71
2021/08/01 12:25:04;;;;;;;8.23;1.25;;;18.60;66.90;;;;;;5057560;28;20033;-70
2021/08/01 12:27:34;;;;;;;4.20;1.15;;;18.70;66.20;;;;;;5057219;28;20036;-71
2021/08/01 12:30:04;;;;;;;9.32;2.08;;;18.80;65.30;;;;;;5062396;28;20032;-71
2021/08/01 12:32:33;;;;;;;5.95;1.10;;;18.90;65.60;;;;;;5062769;28;20032;-69
2021/08/01 12:35:12;;;;;;;3.65;1.20;;;19.00;65.20;;;;;;5056596;28;20021;-70
2021/08/01 12:37:48;;;;;;;4.40;1.30;;;19.10;64.20;;;;;;5055035;28;20068;-71
2021/08/01 12:40:34;;;;;;;7.85;2.17;;;19.30;64.40;;;;;;5063407;28;20040;-70
2021/08/01 12:43:06;;;;;;;2.38;1.10;;;19.30;63.70;;;;;;5056499;28;20025;-71
2021/08/01 12:45:40;;;;;;;2.60;1.23;;;19.30;63.90;;;;;;5056012;28;20042;-71
2021/08/01 12:48:31;;;;;;;4.15;1.20;;;19.40;63.50;;;;;;5054572;28;20506;-71